sensor_id;sensor_type;location;lat;lon;timestamp;P1;durP1;ratioP1;P2;durP2;ratioP2
9080;SDS011;13509;50.760;6.080;2022-09-09T00:00:01;3.20;;;1.10;;
9080;SDS011;13509;50.760;6.080;2022-09-09T00:02:31;1.23;;;1.03;;
9080;SDS011;13509;50.760;6.080;2022-09-09T00:05:04;1.27;;;0.80;;
9080;SDS011;13509;50.760;6.080;2022-09-09T00:07:38;1.70;;;1.00;;
9080;SDS011;13509;50.760;6.080;2022-09-09T00:10:13;3.43;;;1.20;;
9080;SDS011;13509;50.760;6.080;2022-09-09T00:12:47;4.30;;;1.17;;
9080;SDS011;13509;50.760;6.080;2022-09-09T00:15:17;2.57;;;1.00;;
9080;SDS011;13509;50.760;6.080;2022-09-09T00:17:47;2.30;;;1.00;;
9080;SDS011;13509;50.760;6.080;2022-09-09T00:20:19;1.80;;;0.93;;
9080;SDS011;13509;50.760;6.080;2022-09-09T00:22:50;3.03;;;1.10;;
9080;SDS011;13509;50.760;6.080;2022-09-09T00:25:23;5.87;;;1.30;;
9080;SDS011;13509;50.760;6.080;2022-09-09T00:27:55;3.13;;;1.13;;
9080;SDS011;13509;50.760;6.080;2022-09-09T00:30:24;5.47;;;1.30;;
9080;SDS011;13509;50.760;6.080;2022-09-09T00:32:53;5.27;;;1.50;;
9080;SDS011;13509;50.760;6.080;2022-09-09T00:35:26;3.67;;;1.50;;
9080;SDS011;13509;50.760;6.080;2022-09-09T00:37:56;2.70;;;1.37;;
9080;SDS011;13509;50.760;6.080;2022-09-09T00:40:27;4.23;;;1.30;;
9080;SDS011;13509;50.760;6.080;2022-09-09T00:43:12;4.07;;;1.30;;
9080;SDS011;13509;50.760;6.080;2022-09-09T00:45:53;1.73;;;1.30;;
9080;SDS011;13509;50.760;6.080;2022-09-09T00:48:26;5.73;;;1.43;;
9080;SDS011;13509;50.760;6.080;2022-09-09T00:51:00;5.70;;;1.50;;
9080;SDS011;13509;50.760;6.080;2022-09-09T00:53:36;4.87;;;1.70;;
9080;SDS011;13509;50.760;6.080;2022-09-09T00:56:09;2.70;;;1.50;;
9080;SDS011;13509;50.760;6.080;2022-09-09T00:58:40;3.93;;;1.47;;
9080;SDS011;13509;50.760;6.080;2022-09-09T01:01:09;3.43;;;1.50;;
9080;SDS011;13509;50.760;6.080;2022-09-09T01:03:40;3.37;;;1.53;;
9080;SDS011;13509;50.760;6.080;2022-09-09T01:06:14;3.60;;;1.53;;
9080;SDS011;13509;50.760;6.080;2022-09-09T01:08:57;3.33;;;1.47;;
9080;SDS011;13509;50.760;6.080;2022-09-09T01:11:33;3.57;;;1.50;;
9080;SDS011;13509;50.760;6.080;2022-09-09T01:14:16;7.43;;;1.60;;
9080;SDS011;13509;50.760;6.080;2022-09-09T01:16:47;4.50;;;1.37;;
9080;SDS011;13509;50.760;6.080;2022-09-09T01:19:18;5.07;;;1.40;;
9080;SDS011;13509;50.760;6.080;2022-09-09T01:21:50;6.43;;;1.80;;
9080;SDS011;13509;50.760;6.080;2022-09-09T01:24:24;3.77;;;1.60;;
9080;SDS011;13509;50.760;6.080;2022-09-09T01:26:56;3.20;;;1.50;;
9080;SDS011;13509;50.760;6.080;2022-09-09T01:29:26;2.57;;;1.50;;
9080;SDS011;13509;50.760;6.080;2022-09-09T01:31:55;4.60;;;1.90;;
9080;SDS011;13509;50.760;6.080;2022-09-09T01:34:24;6.50;;;1.73;;
9080;SDS011;13509;50.760;6.080;2022-09-09T01:36:54;3.50;;;1.73;;
9080;SDS011;13509;50.760;6.080;2022-09-09T01:39:24;5.00;;;1.60;;
9080;SDS011;13509;50.760;6.080;2022-09-09T01:41:53;7.33;;;1.67;;
9080;SDS011;13509;50.760;6.080;2022-09-09T01:44:23;4.27;;;1.90;;
9080;SDS011;13509;50.760;6.080;2022-09-09T01:46:52;2.30;;;1.50;;
9080;SDS011;13509;50.760;6.080;2022-09-09T01:49:20;2.90;;;1.60;;
9080;SDS011;13509;50.760;6.080;2022-09-09T01:51:49;7.13;;;2.30;;
9080;SDS011;13509;50.760;6.080;2022-09-09T01:54:17;5.57;;;2.10;;
9080;SDS011;13509;50.760;6.080;2022-09-09T01:56:47;8.23;;;2.10;;
9080;SDS011;13509;50.760;6.080;2022-09-09T01:59:27;4.80;;;1.43;;
9080;SDS011;13509;50.760;6.080;2022-09-09T02:02:00;4.63;;;1.80;;
9080;SDS011;13509;50.760;6.080;2022-09-09T02:04:35;4.37;;;1.87;;
9080;SDS011;13509;50.760;6.080;2022-09-09T02:07:06;4.70;;;2.00;;
9080;SDS011;13509;50.760;6.080;2022-09-09T02:09:38;5.27;;;1.90;;
9080;SDS011;13509;50.760;6.080;2022-09-09T02:12:08;3.97;;;1.50;;
9080;SDS011;13509;50.760;6.080;2022-09-09T02:14:40;2.00;;;1.53;;
9080;SDS011;13509;50.760;6.080;2022-09-09T02:17:10;4.20;;;2.57;;
9080;SDS011;13509;50.760;6.080;2022-09-09T02:19:39;5.03;;;2.43;;
9080;SDS011;13509;50.760;6.080;2022-09-09T02:22:10;5.57;;;1.80;;
9080;SDS011;13509;50.760;6.080;2022-09-09T02:24:39;5.13;;;2.30;;
9080;SDS011;13509;50.760;6.080;2022-09-09T02:27:08;4.63;;;1.70;;
9080;SDS011;13509;50.760;6.080;2022-09-09T02:29:38;9.87;;;2.30;;
9080;SDS011;13509;50.760;6.080;2022-09-09T02:32:10;6.37;;;2.00;;
9080;SDS011;13509;50.760;6.080;2022-09-09T02:34:40;8.17;;;1.93;;
9080;SDS011;13509;50.760;6.080;2022-09-09T02:37:10;5.27;;;2.20;;
9080;SDS011;13509;50.760;6.080;2022-09-09T02:39:39;6.17;;;2.00;;
9080;SDS011;13509;50.760;6.080;2022-09-09T02:42:07;5.20;;;1.80;;
9080;SDS011;13509;50.760;6.080;2022-09-09T02:44:36;7.47;;;2.10;;
9080;SDS011;13509;50.760;6.080;2022-09-09T02:47:10;9.33;;;1.73;;
9080;SDS011;13509;50.760;6.080;2022-09-09T02:49:43;8.67;;;2.10;;
9080;SDS011;13509;50.760;6.080;2022-09-09T02:52:17;7.83;;;2.00;;
9080;SDS011;13509;50.760;6.080;2022-09-09T02:54:48;6.80;;;2.27;;
9080;SDS011;13509;50.760;6.080;2022-09-09T02:57:19;8.53;;;2.20;;
9080;SDS011;13509;50.760;6.080;2022-09-09T02:59:49;5.67;;;2.27;;
9080;SDS011;13509;50.760;6.080;2022-09-09T03:02:20;3.97;;;2.10;;
9080;SDS011;13509;50.760;6.080;2022-09-09T03:04:48;5.40;;;1.93;;
9080;SDS011;13509;50.760;6.080;2022-09-09T03:07:18;7.73;;;2.00;;
9080;SDS011;13509;50.760;6.080;2022-09-09T03:09:46;5.43;;;1.83;;
9080;SDS011;13509;50.760;6.080;2022-09-09T03:12:14;5.30;;;2.10;;
9080;SDS011;13509;50.760;6.080;2022-09-09T03:14:43;4.13;;;2.20;;
9080;SDS011;13509;50.760;6.080;2022-09-09T03:17:12;9.67;;;2.73;;
9080;SDS011;13509;50.760;6.080;2022-09-09T03:19:42;6.43;;;2.17;;
9080;SDS011;13509;50.760;6.080;2022-09-09T03:22:10;3.43;;;1.77;;
9080;SDS011;13509;50.760;6.080;2022-09-09T03:24:39;6.60;;;2.20;;
9080;SDS011;13509;50.760;6.080;2022-09-09T03:27:08;6.53;;;1.97;;
9080;SDS011;13509;50.760;6.080;2022-09-09T03:29:36;6.27;;;2.20;;
9080;SDS011;13509;50.760;6.080;2022-09-09T03:32:04;5.03;;;1.87;;
9080;SDS011;13509;50.760;6.080;2022-09-09T03:34:32;9.43;;;2.10;;
9080;SDS011;13509;50.760;6.080;2022-09-09T03:37:02;5.80;;;1.87;;
9080;SDS011;13509;50.760;6.080;2022-09-09T03:39:31;4.97;;;1.83;;
9080;SDS011;13509;50.760;6.080;2022-09-09T03:41:59;8.17;;;2.10;;
9080;SDS011;13509;50.760;6.080;2022-09-09T03:44:30;5.90;;;2.10;;
9080;SDS011;13509;50.760;6.080;2022-09-09T03:46:58;6.73;;;2.40;;
9080;SDS011;13509;50.760;6.080;2022-09-09T03:49:26;8.90;;;2.00;;
9080;SDS011;13509;50.760;6.080;2022-09-09T03:51:55;5.97;;;2.10;;
9080;SDS011;13509;50.760;6.080;2022-09-09T03:54:25;7.43;;;2.17;;
9080;SDS011;13509;50.760;6.080;2022-09-09T03:56:54;5.60;;;1.93;;
9080;SDS011;13509;50.760;6.080;2022-09-09T03:59:22;6.17;;;1.97;;
9080;SDS011;13509;50.760;6.080;2022-09-09T04:01:50;9.23;;;2.20;;
9080;SDS011;13509;50.760;6.080;2022-09-09T04:04:19;3.87;;;1.90;;
9080;SDS011;13509;50.760;6.080;2022-09-09T04:06:48;6.73;;;2.07;;
9080;SDS011;13509;50.760;6.080;2022-09-09T04:09:17;7.30;;;2.50;;
9080;SDS011;13509;50.760;6.080;2022-09-09T04:11:46;8.07;;;1.97;;
9080;SDS011;13509;50.760;6.080;2022-09-09T04:14:15;5.90;;;2.10;;
9080;SDS011;13509;50.760;6.080;2022-09-09T04:16:43;6.37;;;1.77;;
9080;SDS011;13509;50.760;6.080;2022-09-09T04:19:12;6.17;;;1.80;;
9080;SDS011;13509;50.760;6.080;2022-09-09T04:21:40;5.90;;;1.90;;
9080;SDS011;13509;50.760;6.080;2022-09-09T04:24:08;8.67;;;2.53;;
9080;SDS011;13509;50.760;6.080;2022-09-09T04:26:36;6.00;;;1.93;;
9080;SDS011;13509;50.760;6.080;2022-09-09T04:29:06;6.37;;;1.80;;
9080;SDS011;13509;50.760;6.080;2022-09-09T04:31:34;4.80;;;1.93;;
9080;SDS011;13509;50.760;6.080;2022-09-09T04:34:03;6.57;;;2.07;;
9080;SDS011;13509;50.760;6.080;2022-09-09T04:36:32;6.03;;;2.30;;
9080;SDS011;13509;50.760;6.080;2022-09-09T04:39:01;6.10;;;1.57;;
9080;SDS011;13509;50.760;6.080;2022-09-09T04:41:29;5.83;;;1.90;;
9080;SDS011;13509;50.760;6.080;2022-09-09T04:43:57;6.77;;;1.80;;
9080;SDS011;13509;50.760;6.080;2022-09-09T04:46:28;5.80;;;1.90;;
9080;SDS011;13509;50.760;6.080;2022-09-09T04:48:56;4.73;;;1.80;;
9080;SDS011;13509;50.760;6.080;2022-09-09T04:51:24;5.33;;;1.87;;
9080;SDS011;13509;50.760;6.080;2022-09-09T04:53:52;4.33;;;1.40;;
9080;SDS011;13509;50.760;6.080;2022-09-09T04:56:21;7.10;;;1.77;;
9080;SDS011;13509;50.760;6.080;2022-09-09T04:58:49;5.10;;;1.53;;
9080;SDS011;13509;50.760;6.080;2022-09-09T05:01:17;6.53;;;2.10;;
9080;SDS011;13509;50.760;6.080;2022-09-09T05:03:48;8.70;;;2.23;;
9080;SDS011;13509;50.760;6.080;2022-09-09T05:06:17;5.47;;;1.87;;
9080;SDS011;13509;50.760;6.080;2022-09-09T05:08:45;4.03;;;1.47;;
9080;SDS011;13509;50.760;6.080;2022-09-09T05:11:15;5.93;;;1.80;;
9080;SDS011;13509;50.760;6.080;2022-09-09T05:13:43;10.03;;;1.80;;
9080;SDS011;13509;50.760;6.080;2022-09-09T05:16:12;8.07;;;1.67;;
9080;SDS011;13509;50.760;6.080;2022-09-09T05:18:40;6.27;;;1.80;;
9080;SDS011;13509;50.760;6.080;2022-09-09T05:21:11;6.73;;;1.83;;
9080;SDS011;13509;50.760;6.080;2022-09-09T05:23:40;5.70;;;1.50;;
9080;SDS011;13509;50.760;6.080;2022-09-09T05:26:09;7.70;;;2.00;;
9080;SDS011;13509;50.760;6.080;2022-09-09T05:28:43;4.67;;;1.50;;
9080;SDS011;13509;50.760;6.080;2022-09-09T05:31:11;6.53;;;1.77;;
9080;SDS011;13509;50.760;6.080;2022-09-09T05:33:40;7.53;;;2.00;;
9080;SDS011;13509;50.760;6.080;2022-09-09T05:36:11;6.70;;;1.73;;
9080;SDS011;13509;50.760;6.080;2022-09-09T05:38:40;6.83;;;2.20;;
9080;SDS011;13509;50.760;6.080;2022-09-09T05:41:09;6.27;;;1.77;;
9080;SDS011;13509;50.760;6.080;2022-09-09T05:43:37;7.53;;;1.70;;
9080;SDS011;13509;50.760;6.080;2022-09-09T05:46:06;5.50;;;1.70;;
9080;SDS011;13509;50.760;6.080;2022-09-09T05:48:34;3.47;;;1.60;;
9080;SDS011;13509;50.760;6.080;2022-09-09T05:51:04;7.17;;;2.03;;
9080;SDS011;13509;50.760;6.080;2022-09-09T05:53:34;4.73;;;1.60;;
9080;SDS011;13509;50.760;6.080;2022-09-09T05:56:03;6.13;;;1.80;;
9080;SDS011;13509;50.760;6.080;2022-09-09T05:58:32;4.23;;;2.00;;
9080;SDS011;13509;50.760;6.080;2022-09-09T06:01:02;5.03;;;1.77;;
9080;SDS011;13509;50.760;6.080;2022-09-09T06:03:30;9.00;;;1.50;;
9080;SDS011;13509;50.760;6.080;2022-09-09T06:05:59;5.07;;;1.30;;
9080;SDS011;13509;50.760;6.080;2022-09-09T06:08:27;5.17;;;1.50;;
9080;SDS011;13509;50.760;6.080;2022-09-09T06:11:01;4.83;;;1.70;;
9080;SDS011;13509;50.760;6.080;2022-09-09T06:13:30;12.07;;;1.93;;
9080;SDS011;13509;50.760;6.080;2022-09-09T06:15:58;5.00;;;1.50;;
9080;SDS011;13509;50.760;6.080;2022-09-09T06:18:27;9.00;;;1.83;;
9080;SDS011;13509;50.760;6.080;2022-09-09T06:20:56;5.13;;;1.33;;
9080;SDS011;13509;50.760;6.080;2022-09-09T06:23:25;4.17;;;1.53;;
9080;SDS011;13509;50.760;6.080;2022-09-09T06:26:01;4.50;;;1.57;;
9080;SDS011;13509;50.760;6.080;2022-09-09T06:28:29;11.27;;;1.93;;
9080;SDS011;13509;50.760;6.080;2022-09-09T06:30:58;3.70;;;1.30;;
9080;SDS011;13509;50.760;6.080;2022-09-09T06:33:27;7.87;;;1.60;;
9080;SDS011;13509;50.760;6.080;2022-09-09T06:35:58;6.70;;;1.57;;
9080;SDS011;13509;50.760;6.080;2022-09-09T06:38:26;5.07;;;1.57;;
9080;SDS011;13509;50.760;6.080;2022-09-09T06:40:54;4.10;;;1.33;;
9080;SDS011;13509;50.760;6.080;2022-09-09T06:43:25;4.20;;;1.60;;
9080;SDS011;13509;50.760;6.080;2022-09-09T06:45:55;2.77;;;1.30;;
9080;SDS011;13509;50.760;6.080;2022-09-09T06:48:23;4.50;;;1.37;;
9080;SDS011;13509;50.760;6.080;2022-09-09T06:50:59;4.73;;;1.57;;
9080;SDS011;13509;50.760;6.080;2022-09-09T06:53:27;4.60;;;1.37;;
9080;SDS011;13509;50.760;6.080;2022-09-09T06:55:56;6.30;;;1.43;;
9080;SDS011;13509;50.760;6.080;2022-09-09T06:58:26;5.37;;;1.27;;
9080;SDS011;13509;50.760;6.080;2022-09-09T07:01:01;2.83;;;1.50;;
9080;SDS011;13509;50.760;6.080;2022-09-09T07:03:29;3.50;;;1.50;;
9080;SDS011;13509;50.760;6.080;2022-09-09T07:05:57;4.70;;;1.13;;
9080;SDS011;13509;50.760;6.080;2022-09-09T07:08:25;5.57;;;1.73;;
9080;SDS011;13509;50.760;6.080;2022-09-09T07:10:54;4.90;;;1.60;;
9080;SDS011;13509;50.760;6.080;2022-09-09T07:13:24;3.37;;;1.30;;
9080;SDS011;13509;50.760;6.080;2022-09-09T07:15:53;9.50;;;1.70;;
9080;SDS011;13509;50.760;6.080;2022-09-09T07:18:21;7.07;;;1.67;;
9080;SDS011;13509;50.760;6.080;2022-09-09T07:20:53;5.90;;;1.47;;
9080;SDS011;13509;50.760;6.080;2022-09-09T07:23:23;4.83;;;1.70;;
9080;SDS011;13509;50.760;6.080;2022-09-09T07:25:52;6.33;;;2.03;;
9080;SDS011;13509;50.760;6.080;2022-09-09T07:28:21;5.87;;;1.47;;
9080;SDS011;13509;50.760;6.080;2022-09-09T07:30:54;6.33;;;1.50;;
9080;SDS011;13509;50.760;6.080;2022-09-09T07:33:23;6.17;;;1.50;;
9080;SDS011;13509;50.760;6.080;2022-09-09T07:35:52;4.27;;;1.50;;
9080;SDS011;13509;50.760;6.080;2022-09-09T07:38:20;4.57;;;1.70;;
9080;SDS011;13509;50.760;6.080;2022-09-09T07:40:49;5.30;;;2.10;;
9080;SDS011;13509;50.760;6.080;2022-09-09T07:43:17;6.30;;;1.90;;
9080;SDS011;13509;50.760;6.080;2022-09-09T07:45:45;4.50;;;1.77;;
9080;SDS011;13509;50.760;6.080;2022-09-09T07:48:14;6.03;;;1.20;;
9080;SDS011;13509;50.760;6.080;2022-09-09T07:50:43;3.80;;;1.30;;
9080;SDS011;13509;50.760;6.080;2022-09-09T07:53:11;6.37;;;1.67;;
9080;SDS011;13509;50.760;6.080;2022-09-09T07:55:39;4.57;;;1.50;;
9080;SDS011;13509;50.760;6.080;2022-09-09T07:58:07;6.57;;;1.73;;
9080;SDS011;13509;50.760;6.080;2022-09-09T08:00:35;2.63;;;1.33;;
9080;SDS011;13509;50.760;6.080;2022-09-09T08:03:04;4.57;;;1.50;;
9080;SDS011;13509;50.760;6.080;2022-09-09T08:05:34;2.70;;;1.20;;
9080;SDS011;13509;50.760;6.080;2022-09-09T08:08:02;4.47;;;1.73;;
9080;SDS011;13509;50.760;6.080;2022-09-09T08:10:30;7.77;;;1.63;;
9080;SDS011;13509;50.760;6.080;2022-09-09T08:12:58;4.00;;;1.77;;
9080;SDS011;13509;50.760;6.080;2022-09-09T08:15:43;6.50;;;1.87;;
9080;SDS011;13509;50.760;6.080;2022-09-09T08:18:11;7.53;;;2.30;;
9080;SDS011;13509;50.760;6.080;2022-09-09T08:20:41;5.87;;;1.40;;
9080;SDS011;13509;50.760;6.080;2022-09-09T08:23:09;6.23;;;1.63;;
9080;SDS011;13509;50.760;6.080;2022-09-09T08:25:37;5.77;;;1.80;;
9080;SDS011;13509;50.760;6.080;2022-09-09T08:28:06;5.23;;;1.20;;
9080;SDS011;13509;50.760;6.080;2022-09-09T08:30:35;3.67;;;1.10;;
9080;SDS011;13509;50.760;6.080;2022-09-09T08:33:04;5.67;;;1.43;;
9080;SDS011;13509;50.760;6.080;2022-09-09T08:35:32;4.13;;;1.40;;
9080;SDS011;13509;50.760;6.080;2022-09-09T08:38:01;3.07;;;1.60;;
9080;SDS011;13509;50.760;6.080;2022-09-09T08:40:36;3.40;;;1.37;;
9080;SDS011;13509;50.760;6.080;2022-09-09T08:43:07;7.77;;;1.50;;
9080;SDS011;13509;50.760;6.080;2022-09-09T08:45:37;4.20;;;1.43;;
9080;SDS011;13509;50.760;6.080;2022-09-09T08:48:15;4.20;;;1.30;;
9080;SDS011;13509;50.760;6.080;2022-09-09T08:50:48;3.30;;;1.37;;
9080;SDS011;13509;50.760;6.080;2022-09-09T08:53:19;3.87;;;1.30;;
9080;SDS011;13509;50.760;6.080;2022-09-09T08:55:48;4.67;;;1.80;;
9080;SDS011;13509;50.760;6.080;2022-09-09T08:58:17;3.13;;;1.63;;
9080;SDS011;13509;50.760;6.080;2022-09-09T09:01:09;4.67;;;1.13;;
9080;SDS011;13509;50.760;6.080;2022-09-09T09:03:48;4.13;;;1.20;;
9080;SDS011;13509;50.760;6.080;2022-09-09T09:06:23;4.77;;;1.30;;
9080;SDS011;13509;50.760;6.080;2022-09-09T09:08:58;5.10;;;1.20;;
9080;SDS011;13509;50.760;6.080;2022-09-09T09:11:33;5.07;;;1.60;;
9080;SDS011;13509;50.760;6.080;2022-09-09T09:14:02;3.77;;;1.03;;
9080;SDS011;13509;50.760;6.080;2022-09-09T09:16:32;4.90;;;1.40;;
9080;SDS011;13509;50.760;6.080;2022-09-09T09:19:02;2.20;;;1.10;;
9080;SDS011;13509;50.760;6.080;2022-09-09T09:21:34;3.93;;;1.40;;
9080;SDS011;13509;50.760;6.080;2022-09-09T09:24:12;3.27;;;1.23;;
9080;SDS011;13509;50.760;6.080;2022-09-09T09:26:47;2.77;;;1.10;;
9080;SDS011;13509;50.760;6.080;2022-09-09T09:29:16;4.72;;;1.60;;
9080;SDS011;13509;50.760;6.080;2022-09-09T09:31:46;2.70;;;0.90;;
9080;SDS011;13509;50.760;6.080;2022-09-09T09:34:17;2.83;;;1.10;;
9080;SDS011;13509;50.760;6.080;2022-09-09T09:36:46;2.10;;;1.10;;
9080;SDS011;13509;50.760;6.080;2022-09-09T09:39:24;2.65;;;1.10;;
9080;SDS011;13509;50.760;6.080;2022-09-09T09:42:14;1.88;;;1.10;;
9080;SDS011;13509;50.760;6.080;2022-09-09T09:44:48;2.40;;;1.13;;
9080;SDS011;13509;50.760;6.080;2022-09-09T09:47:17;2.23;;;0.93;;
9080;SDS011;13509;50.760;6.080;2022-09-09T09:49:53;2.30;;;1.03;;
9080;SDS011;13509;50.760;6.080;2022-09-09T09:52:22;2.53;;;1.00;;
9080;SDS011;13509;50.760;6.080;2022-09-09T09:54:52;1.97;;;0.93;;
9080;SDS011;13509;50.760;6.080;2022-09-09T09:57:22;3.40;;;1.20;;
9080;SDS011;13509;50.760;6.080;2022-09-09T10:00:00;3.07;;;1.30;;
9080;SDS011;13509;50.760;6.080;2022-09-09T10:02:31;5.43;;;1.00;;
9080;SDS011;13509;50.760;6.080;2022-09-09T10:05:05;2.73;;;1.20;;
9080;SDS011;13509;50.760;6.080;2022-09-09T10:07:34;3.63;;;1.43;;
9080;SDS011;13509;50.760;6.080;2022-09-09T10:10:05;4.27;;;1.10;;
9080;SDS011;13509;50.760;6.080;2022-09-09T10:12:40;3.57;;;1.20;;
9080;SDS011;13509;50.760;6.080;2022-09-09T10:15:21;2.47;;;1.10;;
9080;SDS011;13509;50.760;6.080;2022-09-09T10:17:56;4.07;;;1.10;;
9080;SDS011;13509;50.760;6.080;2022-09-09T10:20:30;2.70;;;1.10;;
9080;SDS011;13509;50.760;6.080;2022-09-09T10:23:04;1.63;;;1.10;;
9080;SDS011;13509;50.760;6.080;2022-09-09T10:25:41;3.73;;;1.20;;
9080;SDS011;13509;50.760;6.080;2022-09-09T10:28:22;3.10;;;1.13;;
9080;SDS011;13509;50.760;6.080;2022-09-09T10:30:56;5.57;;;1.30;;
9080;SDS011;13509;50.760;6.080;2022-09-09T10:33:28;3.63;;;1.37;;
9080;SDS011;13509;50.760;6.080;2022-09-09T10:36:02;7.30;;;1.33;;
9080;SDS011;13509;50.760;6.080;2022-09-09T10:38:33;5.60;;;1.50;;
9080;SDS011;13509;50.760;6.080;2022-09-09T10:41:09;4.70;;;1.50;;
9080;SDS011;13509;50.760;6.080;2022-09-09T10:46:28;2.43;;;1.07;;
9080;SDS011;13509;50.760;6.080;2022-09-09T10:49:02;3.80;;;1.50;;
9080;SDS011;13509;50.760;6.080;2022-09-09T10:51:36;4.30;;;1.23;;
9080;SDS011;13509;50.760;6.080;2022-09-09T10:54:12;4.80;;;1.53;;
9080;SDS011;13509;50.760;6.080;2022-09-09T10:56:45;4.43;;;1.60;;
9080;SDS011;13509;50.760;6.080;2022-09-09T10:59:17;4.13;;;1.30;;
9080;SDS011;13509;50.760;6.080;2022-09-09T11:01:49;4.93;;;1.47;;
9080;SDS011;13509;50.760;6.080;2022-09-09T11:04:21;3.57;;;1.40;;
9080;SDS011;13509;50.760;6.080;2022-09-09T11:06:50;4.60;;;1.77;;
9080;SDS011;13509;50.760;6.080;2022-09-09T11:09:21;5.83;;;1.60;;
9080;SDS011;13509;50.760;6.080;2022-09-09T11:11:52;4.13;;;1.40;;
9080;SDS011;13509;50.760;6.080;2022-09-09T11:14:22;5.23;;;1.27;;
9080;SDS011;13509;50.760;6.080;2022-09-09T11:16:53;5.10;;;1.50;;
9080;SDS011;13509;50.760;6.080;2022-09-09T11:19:26;5.30;;;1.40;;
9080;SDS011;13509;50.760;6.080;2022-09-09T11:21:56;5.27;;;1.30;;
9080;SDS011;13509;50.760;6.080;2022-09-09T11:24:25;4.90;;;1.13;;
9080;SDS011;13509;50.760;6.080;2022-09-09T11:26:57;4.40;;;1.57;;
9080;SDS011;13509;50.760;6.080;2022-09-09T11:29:32;6.70;;;1.63;;
9080;SDS011;13509;50.760;6.080;2022-09-09T11:32:08;4.67;;;1.30;;
9080;SDS011;13509;50.760;6.080;2022-09-09T11:34:42;4.07;;;1.53;;
9080;SDS011;13509;50.760;6.080;2022-09-09T11:37:30;8.83;;;1.80;;
9080;SDS011;13509;50.760;6.080;2022-09-09T11:40:07;4.67;;;1.40;;
9080;SDS011;13509;50.760;6.080;2022-09-09T11:42:38;3.63;;;1.50;;
9080;SDS011;13509;50.760;6.080;2022-09-09T11:45:15;6.27;;;1.63;;
9080;SDS011;13509;50.760;6.080;2022-09-09T11:47:53;2.60;;;1.00;;
9080;SDS011;13509;50.760;6.080;2022-09-09T11:50:27;3.27;;;1.13;;
9080;SDS011;13509;50.760;6.080;2022-09-09T11:53:04;5.20;;;1.50;;
9080;SDS011;13509;50.760;6.080;2022-09-09T11:55:33;3.40;;;1.10;;
9080;SDS011;13509;50.760;6.080;2022-09-09T11:58:04;5.90;;;1.30;;
9080;SDS011;13509;50.760;6.080;2022-09-09T12:00:34;6.20;;;1.83;;
9080;SDS011;13509;50.760;6.080;2022-09-09T12:03:04;5.57;;;1.33;;
9080;SDS011;13509;50.760;6.080;2022-09-09T12:05:36;3.10;;;1.37;;
9080;SDS011;13509;50.760;6.080;2022-09-09T12:08:04;3.57;;;1.30;;
9080;SDS011;13509;50.760;6.080;2022-09-09T12:10:34;3.17;;;1.10;;
9080;SDS011;13509;50.760;6.080;2022-09-09T12:13:18;4.20;;;1.63;;
9080;SDS011;13509;50.760;6.080;2022-09-09T12:15:47;2.33;;;1.23;;
9080;SDS011;13509;50.760;6.080;2022-09-09T12:18:16;7.50;;;1.70;;
9080;SDS011;13509;50.760;6.080;2022-09-09T12:20:52;5.40;;;1.77;;
9080;SDS011;13509;50.760;6.080;2022-09-09T12:23:25;2.97;;;1.20;;
9080;SDS011;13509;50.760;6.080;2022-09-09T12:25:58;5.53;;;1.53;;
9080;SDS011;13509;50.760;6.080;2022-09-09T12:28:41;3.43;;;1.40;;
9080;SDS011;13509;50.760;6.080;2022-09-09T12:31:10;3.40;;;1.07;;
9080;SDS011;13509;50.760;6.080;2022-09-09T12:33:44;5.20;;;1.87;;
9080;SDS011;13509;50.760;6.080;2022-09-09T12:36:14;3.67;;;1.50;;
9080;SDS011;13509;50.760;6.080;2022-09-09T12:38:44;3.10;;;1.30;;
9080;SDS011;13509;50.760;6.080;2022-09-09T12:41:19;2.37;;;1.47;;
9080;SDS011;13509;50.760;6.080;2022-09-09T12:43:49;2.87;;;1.30;;
9080;SDS011;13509;50.760;6.080;2022-09-09T12:46:28;3.80;;;1.20;;
9080;SDS011;13509;50.760;6.080;2022-09-09T12:49:02;5.23;;;1.57;;
9080;SDS011;13509;50.760;6.080;2022-09-09T12:51:32;3.87;;;1.30;;
9080;SDS011;13509;50.760;6.080;2022-09-09T12:54:01;2.63;;;1.10;;
9080;SDS011;13509;50.760;6.080;2022-09-09T12:56:29;2.13;;;1.00;;
9080;SDS011;13509;50.760;6.080;2022-09-09T12:58:59;1.60;;;1.00;;
9080;SDS011;13509;50.760;6.080;2022-09-09T13:01:28;2.83;;;1.30;;
9080;SDS011;13509;50.760;6.080;2022-09-09T13:03:57;3.43;;;1.07;;
9080;SDS011;13509;50.760;6.080;2022-09-09T13:06:26;3.57;;;1.20;;
9080;SDS011;13509;50.760;6.080;2022-09-09T13:08:55;3.57;;;1.20;;
9080;SDS011;13509;50.760;6.080;2022-09-09T13:11:25;4.27;;;1.20;;
9080;SDS011;13509;50.760;6.080;2022-09-09T13:13:54;2.07;;;1.20;;
9080;SDS011;13509;50.760;6.080;2022-09-09T13:16:26;3.47;;;1.43;;
9080;SDS011;13509;50.760;6.080;2022-09-09T13:18:58;4.33;;;1.20;;
9080;SDS011;13509;50.760;6.080;2022-09-09T13:21:33;5.80;;;1.47;;
9080;SDS011;13509;50.760;6.080;2022-09-09T13:24:02;3.07;;;1.37;;
9080;SDS011;13509;50.760;6.080;2022-09-09T13:26:30;3.27;;;1.00;;
9080;SDS011;13509;50.760;6.080;2022-09-09T13:29:14;4.53;;;1.10;;
9080;SDS011;13509;50.760;6.080;2022-09-09T13:31:46;3.80;;;1.23;;
9080;SDS011;13509;50.760;6.080;2022-09-09T13:34:25;4.07;;;1.30;;
9080;SDS011;13509;50.760;6.080;2022-09-09T13:36:54;4.07;;;1.10;;
9080;SDS011;13509;50.760;6.080;2022-09-09T13:39:25;3.53;;;1.20;;
9080;SDS011;13509;50.760;6.080;2022-09-09T13:41:53;7.57;;;1.40;;
9080;SDS011;13509;50.760;6.080;2022-09-09T13:44:23;3.43;;;1.03;;
9080;SDS011;13509;50.760;6.080;2022-09-09T13:47:03;2.33;;;1.23;;
9080;SDS011;13509;50.760;6.080;2022-09-09T13:49:35;3.10;;;1.47;;
9080;SDS011;13509;50.760;6.080;2022-09-09T13:52:04;3.03;;;1.23;;
9080;SDS011;13509;50.760;6.080;2022-09-09T13:54:33;3.23;;;1.20;;
9080;SDS011;13509;50.760;6.080;2022-09-09T13:57:02;3.53;;;1.87;;
9080;SDS011;13509;50.760;6.080;2022-09-09T13:59:30;3.73;;;1.53;;
9080;SDS011;13509;50.760;6.080;2022-09-09T14:02:20;5.33;;;1.67;;
9080;SDS011;13509;50.760;6.080;2022-09-09T14:04:49;3.67;;;1.57;;
9080;SDS011;13509;50.760;6.080;2022-09-09T14:07:21;5.17;;;1.50;;
9080;SDS011;13509;50.760;6.080;2022-09-09T14:09:49;4.30;;;1.40;;
9080;SDS011;13509;50.760;6.080;2022-09-09T14:12:18;4.93;;;1.73;;
9080;SDS011;13509;50.760;6.080;2022-09-09T14:14:46;4.47;;;1.33;;
9080;SDS011;13509;50.760;6.080;2022-09-09T14:17:15;4.70;;;2.00;;
9080;SDS011;13509;50.760;6.080;2022-09-09T14:19:45;5.67;;;2.03;;
9080;SDS011;13509;50.760;6.080;2022-09-09T14:22:13;3.43;;;1.40;;
9080;SDS011;13509;50.760;6.080;2022-09-09T14:24:41;3.40;;;1.80;;
9080;SDS011;13509;50.760;6.080;2022-09-09T14:27:09;7.73;;;1.63;;
9080;SDS011;13509;50.760;6.080;2022-09-09T14:29:37;4.40;;;1.40;;
9080;SDS011;13509;50.760;6.080;2022-09-09T14:32:06;5.03;;;1.83;;
9080;SDS011;13509;50.760;6.080;2022-09-09T14:34:38;4.07;;;1.70;;
9080;SDS011;13509;50.760;6.080;2022-09-09T14:37:08;3.13;;;1.50;;
9080;SDS011;13509;50.760;6.080;2022-09-09T14:39:36;5.60;;;1.50;;
9080;SDS011;13509;50.760;6.080;2022-09-09T14:42:04;4.63;;;1.80;;
9080;SDS011;13509;50.760;6.080;2022-09-09T14:44:32;3.87;;;1.40;;
9080;SDS011;13509;50.760;6.080;2022-09-09T14:47:01;3.83;;;1.70;;
9080;SDS011;13509;50.760;6.080;2022-09-09T14:49:29;3.07;;;1.50;;
9080;SDS011;13509;50.760;6.080;2022-09-09T14:51:57;2.87;;;1.03;;
9080;SDS011;13509;50.760;6.080;2022-09-09T14:54:26;6.00;;;1.30;;
9080;SDS011;13509;50.760;6.080;2022-09-09T14:56:55;2.23;;;1.10;;
9080;SDS011;13509;50.760;6.080;2022-09-09T14:59:24;2.80;;;1.20;;
9080;SDS011;13509;50.760;6.080;2022-09-09T15:01:52;3.30;;;1.30;;
9080;SDS011;13509;50.760;6.080;2022-09-09T15:04:21;4.13;;;1.60;;
9080;SDS011;13509;50.760;6.080;2022-09-09T15:06:50;6.10;;;1.40;;
9080;SDS011;13509;50.760;6.080;2022-09-09T15:09:19;5.33;;;1.53;;
9080;SDS011;13509;50.760;6.080;2022-09-09T15:11:48;2.90;;;1.20;;
9080;SDS011;13509;50.760;6.080;2022-09-09T15:14:17;4.67;;;1.60;;
9080;SDS011;13509;50.760;6.080;2022-09-09T15:16:50;3.07;;;1.50;;
9080;SDS011;13509;50.760;6.080;2022-09-09T15:19:18;3.17;;;1.77;;
9080;SDS011;13509;50.760;6.080;2022-09-09T15:21:46;5.37;;;1.60;;
9080;SDS011;13509;50.760;6.080;2022-09-09T15:24:15;3.50;;;1.50;;